Time;durP1;ratioP1;P1;durP2;ratioP2;P2;SDS_P1;SDS_P2;PMS_P1;PMS_P2;Temp;Humidity;BMP_temperature;BMP_pressure;BME280_temperature;BME280_humidity;BME280_pressure;Samples;Min_cycle;Max_cycle;Signal;HPM_P1;HPM_P2
2022/03/26 00:00:02;;;;;;;45.72;22.10;;;5.60;98.60;;;;;;4981052;28;20206;-86
2022/03/26 00:02:29;;;;;;;51.10;21.52;;;5.60;98.70;;;;;;4966573;28;20242;-85
2022/03/26 00:04:54;;;;;;;49.72;25.27;;;5.60;98.40;;;;;;4967659;28;20219;-86
2022/03/26 00:07:20;;;;;;;42.40;22.47;;;5.70;98.20;;;;;;4969193;28;20180;-85
2022/03/26 00:09:46;;;;;;;45.00;22.08;;;5.80;98.30;;;;;;4978273;28;20583;-85
2022/03/26 00:12:11;;;;;;;47.83;22.27;;;5.80;98.30;;;;;;4969687;28;20261;-85
2022/03/26 00:14:37;;;;;;;46.00;22.50;;;5.70;98.60;;;;;;4968044;28;20284;-84
2022/03/26 00:17:03;;;;;;;52.63;25.60;;;5.60;98.90;;;;;;4955933;28;20196;-85
2022/03/26 00:19:28;;;;;;;43.27;23.00;;;5.60;99.30;;;;;;4969404;28;20581;-85
2022/03/26 00:21:54;;;;;;;49.87;24.20;;;5.50;99.50;;;;;;4969501;28;20219;-86
2022/03/26 00:24:19;;;;;;;46.43;21.23;;;5.60;99.50;;;;;;4971062;28;20212;-85
2022/03/26 00:26:45;;;;;;;47.90;22.83;;;5.60;99.60;;;;;;4990352;28;20186;-84
2022/03/26 00:29:10;;;;;;;48.20;21.80;;;5.50;99.90;;;;;;4979135;28;20204;-84
2022/03/26 00:31:37;;;;;;;47.43;22.97;;;5.50;99.90;;;;;;4974102;28;20214;-86
2022/03/26 00:34:04;;;;;;;47.47;21.48;;;5.40;99.90;;;;;;4962408;28;20280;-86
2022/03/26 00:36:30;;;;;;;49.45;24.98;;;5.30;99.90;;;;;;4978232;28;20437;-85
2022/03/26 00:38:56;;;;;;;51.15;25.05;;;5.20;99.90;;;;;;4964922;28;20190;-87
2022/03/26 00:41:23;;;;;;;42.67;20.87;;;5.70;99.90;;;;;;4967012;28;20184;-85
2022/03/26 00:43:49;;;;;;;46.42;22.40;;;5.30;99.90;;;;;;4964869;28;20475;-86
2022/03/26 00:46:15;;;;;;;45.13;20.90;;;5.30;99.90;;;;;;4960918;28;20214;-86
2022/03/26 00:48:40;;;;;;;41.43;22.13;;;5.30;99.90;;;;;;4967115;28;20453;-86
2022/03/26 00:51:06;;;;;;;47.33;23.53;;;5.30;99.90;;;;;;4965187;28;20252;-84
2022/03/26 00:53:31;;;;;;;48.50;21.40;;;5.20;99.90;;;;;;4971094;28;20339;-86
2022/03/26 00:55:57;;;;;;;41.37;21.87;;;5.20;99.90;;;;;;4968042;28;20195;-84
2022/03/26 00:58:23;;;;;;;51.13;22.83;;;5.20;99.90;;;;;;4981745;28;20196;-83
2022/03/26 01:00:48;;;;;;;37.83;21.30;;;5.20;99.90;;;;;;4969789;28;20609;-86
2022/03/26 01:03:16;;;;;;;52.00;22.90;;;5.20;99.90;;;;;;4969808;28;20250;-84
2022/03/26 01:05:43;;;;;;;42.00;22.42;;;5.20;99.90;;;;;;4965227;28;20172;-84
2022/03/26 01:08:08;;;;;;;42.33;21.70;;;5.20;99.90;;;;;;4965312;28;20191;-84
2022/03/26 01:10:34;;;;;;;48.77;21.57;;;5.10;99.90;;;;;;4968310;28;20192;-88
2022/03/26 01:13:00;;;;;;;49.93;21.97;;;5.10;99.90;;;;;;4982911;28;20275;-86
2022/03/26 01:15:26;;;;;;;43.33;23.50;;;5.10;99.90;;;;;;4990278;28;20446;-83
2022/03/26 01:17:52;;;;;;;47.83;21.03;;;5.10;99.90;;;;;;4994864;28;20200;-84
2022/03/26 01:20:17;;;;;;;42.22;22.13;;;4.90;99.90;;;;;;4976851;28;20853;-85
2022/03/26 01:22:44;;;;;;;50.13;22.03;;;4.80;99.90;;;;;;4970565;28;20231;-84
2022/03/26 01:25:11;;;;;;;46.13;21.98;;;4.70;99.90;;;;;;4978625;28;20195;-87
2022/03/26 01:27:37;;;;;;;42.25;20.83;;;4.80;99.90;;;;;;4985924;28;20172;-84
2022/03/26 01:30:04;;;;;;;41.30;20.05;;;4.80;99.90;;;;;;4982463;28;20210;-84
2022/03/26 01:32:30;;;;;;;46.42;22.23;;;4.70;99.90;;;;;;4977710;28;20211;-86
2022/03/26 01:34:55;;;;;;;44.42;21.10;;;4.70;99.90;;;;;;4980026;28;20172;-83
2022/03/26 01:37:21;;;;;;;44.27;21.17;;;;;;;;;;4984648;28;20191;-85
2022/03/26 01:39:47;;;;;;;40.75;21.77;;;4.80;99.90;;;;;;4970574;28;20207;-84
2022/03/26 01:42:13;;;;;;;48.97;21.70;;;4.80;99.90;;;;;;4971184;28;20609;-84
2022/03/26 01:44:39;;;;;;;38.43;19.37;;;4.70;99.90;;;;;;4971692;28;20180;-86
2022/03/26 01:47:04;;;;;;;44.07;20.80;;;4.60;99.90;;;;;;4967670;28;20443;-87
2022/03/26 01:49:31;;;;;;;48.40;22.30;;;4.50;99.90;;;;;;4962392;28;20183;-84
2022/03/26 01:52:00;;;;;;;46.83;21.13;;;4.50;99.90;;;;;;4981731;28;20171;-85
2022/03/26 01:54:26;;;;;;;44.65;21.48;;;4.60;99.90;;;;;;4988374;28;20215;-88
2022/03/26 01:56:53;;;;;;;46.13;20.98;;;4.60;99.90;;;;;;4973939;28;20298;-86
2022/03/26 01:59:19;;;;;;;41.83;19.42;;;4.70;99.90;;;;;;4968794;28;20564;-85
2022/03/26 02:01:45;;;;;;;45.83;21.40;;;4.80;99.90;;;;;;4963665;28;20211;-85
2022/03/26 02:04:12;;;;;;;39.28;20.23;;;4.80;99.90;;;;;;4966028;28;20468;-84
2022/03/26 02:06:39;;;;;;;41.85;20.92;;;4.70;99.90;;;;;;4970250;28;20184;-83
2022/03/26 02:09:14;;;;;;;42.50;20.92;;;4.60;99.90;;;;;;4969251;28;20211;-85
2022/03/26 02:11:42;;;;;;;43.90;20.90;;;4.50;99.90;;;;;;4966597;28;20187;-83
2022/03/26 02:14:08;;;;;;;44.92;20.70;;;4.40;99.90;;;;;;4968939;28;20203;-84
2022/03/26 02:16:36;;;;;;;42.20;22.50;;;4.40;99.90;;;;;;4966344;28;20199;-85
2022/03/26 02:19:03;;;;;;;50.42;21.65;;;4.30;99.90;;;;;;4965382;28;20311;-85
2022/03/26 02:21:29;;;;;;;49.47;21.48;;;4.30;99.90;;;;;;4969566;28;20278;-86
2022/03/26 02:23:55;;;;;;;41.60;22.02;;;4.30;99.90;;;;;;4968908;28;20219;-85
2022/03/26 02:26:25;;;;;;;54.43;20.93;;;4.40;99.90;;;;;;4961959;28;21023;-85
2022/03/26 02:28:55;;;;;;;42.33;22.52;;;4.40;99.90;;;;;;4970008;28;20247;-84
2022/03/26 02:31:22;;;;;;;42.17;19.67;;;4.40;99.90;;;;;;4973939;28;20210;-87
2022/03/26 02:33:48;;;;;;;44.10;20.55;;;4.30;99.90;;;;;;4967228;28;20579;-88
2022/03/26 02:36:14;;;;;;;46.05;20.38;;;4.20;99.90;;;;;;4965315;28;20271;-85
2022/03/26 02:38:40;;;;;;;42.40;19.13;;;4.30;99.90;;;;;;4964964;28;21001;-85
2022/03/26 02:41:08;;;;;;;42.13;20.40;;;4.20;99.90;;;;;;4964735;28;21732;-83
2022/03/26 02:43:34;;;;;;;46.45;20.55;;;4.10;99.90;;;;;;4984222;28;20475;-84
2022/03/26 02:45:59;;;;;;;44.77;20.03;;;4.10;99.90;;;;;;4962912;28;20191;-84
2022/03/26 02:48:25;;;;;;;42.70;20.57;;;4.00;99.90;;;;;;4961165;28;20486;-85
2022/03/26 02:50:50;;;;;;;43.77;21.00;;;4.00;99.90;;;;;;4967228;28;20191;-85
2022/03/26 02:53:16;;;;;;;42.17;20.40;;;3.90;99.90;;;;;;4969743;28;20791;-83
2022/03/26 02:55:42;;;;;;;33.77;18.47;;;;;;;;;;4969127;28;20222;-85
2022/03/26 02:58:08;;;;;;;42.95;19.45;;;3.90;99.90;;;;;;4966580;28;20255;-86
2022/03/26 03:00:35;;;;;;;49.83;19.30;;;3.80;99.90;;;;;;4955562;28;20279;-84
2022/03/26 03:03:01;;;;;;;35.20;20.00;;;3.70;99.90;;;;;;4973802;28;20211;-81
2022/03/26 03:05:27;;;;;;;40.03;18.87;;;3.80;99.90;;;;;;4984327;28;20188;-86
2022/03/26 03:07:53;;;;;;;38.93;19.60;;;3.70;99.90;;;;;;4966717;28;20180;-86
2022/03/26 03:10:18;;;;;;;36.83;18.53;;;3.70;99.90;;;;;;4963884;28;20439;-87
2022/03/26 03:12:48;;;;;;;43.63;20.63;;;3.70;99.90;;;;;;4966869;28;20562;-86
2022/03/26 03:15:17;;;;;;;38.35;19.25;;;3.70;99.90;;;;;;4982489;28;20471;-84
2022/03/26 03:17:45;;;;;;;43.38;20.63;;;3.80;99.90;;;;;;4994765;28;20204;-84
2022/03/26 03:20:12;;;;;;;40.05;19.00;;;3.80;99.90;;;;;;4974869;28;20190;-85
2022/03/26 03:22:38;;;;;;;34.25;17.02;;;3.70;99.90;;;;;;4969222;28;20227;-85
2022/03/26 03:25:05;;;;;;;39.13;19.38;;;3.80;99.90;;;;;;4964307;28;21131;-87
2022/03/26 03:27:31;;;;;;;41.60;19.35;;;3.70;99.90;;;;;;4964425;28;20245;-87
2022/03/26 03:29:57;;;;;;;42.00;20.10;;;3.60;99.90;;;;;;4967149;28;20179;-86
2022/03/26 03:32:22;;;;;;;36.03;18.33;;;3.60;99.90;;;;;;4966028;28;20463;-85
2022/03/26 03:34:48;;;;;;;43.63;21.43;;;3.60;99.90;;;;;;4968106;28;20192;-85
2022/03/26 03:37:13;;;;;;;47.07;19.57;;;3.50;99.90;;;;;;4956378;28;20191;-84
2022/03/26 03:39:39;;;;;;;51.07;21.30;;;3.50;99.90;;;;;;4966831;28;20188;-84
2022/03/26 03:42:05;;;;;;;42.47;20.10;;;3.60;99.90;;;;;;4968966;28;20330;-85
2022/03/26 03:44:31;;;;;;;35.92;18.67;;;3.50;99.90;;;;;;4967217;28;20656;-86
2022/03/26 03:46:57;;;;;;;36.47;17.93;;;3.40;99.90;;;;;;4969170;28;20191;-84
2022/03/26 03:49:23;;;;;;;44.40;21.13;;;3.30;99.90;;;;;;4977955;28;20692;-84
2022/03/26 03:51:49;;;;;;;41.07;20.67;;;3.30;99.90;;;;;;4972459;28;21058;-84
2022/03/26 03:54:15;;;;;;;37.95;18.83;;;3.30;99.90;;;;;;4974221;28;20203;-84
2022/03/26 03:56:41;;;;;;;41.63;18.80;;;3.30;99.90;;;;;;4965096;28;20558;-83
2022/03/26 03:59:07;;;;;;;39.47;18.35;;;3.20;99.90;;;;;;4966476;28;20447;-84
2022/03/26 04:01:33;;;;;;;39.70;18.80;;;3.20;99.90;;;;;;4966599;28;20672;-83
2022/03/26 04:03:59;;;;;;;36.13;18.00;;;3.20;99.90;;;;;;4981058;28;20317;-84
2022/03/26 04:06:24;;;;;;;52.50;22.03;;;3.10;99.90;;;;;;4979908;28;20454;-82
2022/03/26 04:08:50;;;;;;;38.43;17.90;;;3.10;99.90;;;;;;4984311;28;20215;-84
2022/03/26 04:11:16;;;;;;;40.43;18.47;;;3.10;99.90;;;;;;4992898;28;20246;-82
2022/03/26 04:13:41;;;;;;;44.80;17.10;;;3.00;99.90;;;;;;4978116;28;20207;-86
2022/03/26 04:16:07;;;;;;;35.30;18.37;;;3.20;99.90;;;;;;4956808;28;20194;-84
2022/03/26 04:18:34;;;;;;;39.80;17.45;;;3.10;99.90;;;;;;4969792;28;20195;-84
2022/03/26 04:21:00;;;;;;;46.55;20.48;;;3.60;99.90;;;;;;4965414;28;20196;-84
2022/03/26 04:23:27;;;;;;;47.30;18.05;;;3.20;99.90;;;;;;4970365;28;20245;-85
2022/03/26 04:25:55;;;;;;;44.05;19.70;;;3.20;99.90;;;;;;4969362;28;20188;-86
2022/03/26 04:28:20;;;;;;;41.03;18.40;;;3.20;99.90;;;;;;4971197;28;20172;-82
2022/03/26 04:30:46;;;;;;;46.90;21.43;;;3.10;99.90;;;;;;4991378;28;20837;-83
2022/03/26 04:33:12;;;;;;;34.17;18.30;;;3.10;99.90;;;;;;4990602;28;20203;-81
2022/03/26 04:35:38;;;;;;;41.23;20.37;;;3.00;99.90;;;;;;4980562;28;20459;-84
2022/03/26 04:38:04;;;;;;;38.10;18.93;;;;;;;;;;4986008;28;20435;-85
2022/03/26 04:40:29;;;;;;;34.63;18.30;;;3.10;99.90;;;;;;4979184;28;20188;-82
2022/03/26 04:42:55;;;;;;;40.87;18.77;;;3.10;99.90;;;;;;4987448;28;20482;-85
2022/03/26 04:45:23;;;;;;;36.17;18.30;;;3.20;99.90;;;;;;4977315;28;20689;-85
2022/03/26 04:47:48;;;;;;;36.70;18.88;;;3.10;99.90;;;;;;4972288;28;20443;-84
2022/03/26 04:50:14;;;;;;;49.80;17.80;;;2.80;99.90;;;;;;4969705;28;20200;-82
2022/03/26 04:52:41;;;;;;;37.07;19.10;;;3.00;99.90;;;;;;4966133;28;20603;-84
2022/03/26 04:55:11;;;;;;;43.50;18.42;;;2.90;99.90;;;;;;4965803;28;20835;-85
2022/03/26 04:57:43;;;;;;;37.60;18.23;;;2.80;99.90;;;;;;4966034;28;20184;-84
2022/03/26 05:00:11;;;;;;;34.45;16.23;;;2.70;99.90;;;;;;4974409;28;20203;-81
2022/03/26 05:02:38;;;;;;;38.28;16.95;;;2.90;99.90;;;;;;4971108;28;20216;-84
2022/03/26 05:05:11;;;;;;;38.45;19.35;;;2.90;99.90;;;;;;4969979;28;20879;-85
2022/03/26 05:07:47;;;;;;;34.00;17.90;;;3.00;99.90;;;;;;4969544;28;20184;-86
2022/03/26 05:10:22;;;;;;;41.58;19.33;;;2.90;99.90;;;;;;4994019;28;20199;-83
2022/03/26 05:12:49;;;;;;;34.17;16.60;;;2.90;99.90;;;;;;4997044;28;20234;-82
2022/03/26 05:15:15;;;;;;;32.30;17.65;;;3.10;99.90;;;;;;4991664;28;20196;-83
2022/03/26 05:17:41;;;;;;;43.35;18.88;;;3.10;99.90;;;;;;4990072;28;20200;-85
2022/03/26 05:20:08;;;;;;;40.10;18.47;;;3.10;99.90;;;;;;4971734;28;20176;-87
2022/03/26 05:22:35;;;;;;;40.00;17.35;;;3.10;99.90;;;;;;4988444;28;20478;-85
2022/03/26 05:25:00;;;;;;;40.65;17.92;;;3.20;99.90;;;;;;4989106;28;20187;-85
2022/03/26 05:27:26;;;;;;;39.73;18.70;;;3.10;99.90;;;;;;4970025;28;20255;-85
2022/03/26 05:29:52;;;;;;;37.47;17.50;;;3.10;99.90;;;;;;4971926;28;20427;-85
2022/03/26 05:32:18;;;;;;;39.03;18.67;;;3.00;99.90;;;;;;4971447;28;20439;-85
2022/03/26 05:34:44;;;;;;;32.53;16.02;;;3.00;99.90;;;;;;4981889;28;20590;-87
2022/03/26 05:37:10;;;;;;;44.70;19.47;;;3.20;99.90;;;;;;4971072;28;20656;-85
2022/03/26 05:39:36;;;;;;;38.55;17.90;;;3.80;99.90;;;;;;4967696;28;20197;-85
2022/03/26 05:42:02;;;;;;;34.13;18.03;;;4.40;99.90;;;;;;4969313;28;20211;-83
2022/03/26 05:44:28;;;;;;;32.90;17.83;;;4.80;99.90;;;;;;4970041;28;20561;-82
2022/03/26 05:46:53;;;;;;;34.73;17.80;;;5.40;99.90;;;;;;4965217;28;20233;-85
2022/03/26 05:49:19;;;;;;;42.80;17.10;;;6.10;99.90;;;;;;4973007;28;20321;-83
2022/03/26 05:51:45;;;;;;;38.20;18.13;;;7.00;99.90;;;;;;4967241;28;20183;-84
2022/03/26 05:54:12;;;;;;;35.80;18.50;;;7.80;99.90;;;;;;4966342;28;20204;-83
2022/03/26 05:56:37;;;;;;;36.13;16.63;;;8.00;99.90;;;;;;4961666;28;21058;-82
2022/03/26 05:59:04;;;;;;;38.03;18.07;;;9.30;99.90;;;;;;4962584;28;20192;-81
2022/03/26 06:01:31;;;;;;;37.35;18.80;;;9.60;99.90;;;;;;4983658;28;20176;-86
2022/03/26 06:03:57;;;;;;;34.65;18.35;;;10.40;97.30;;;;;;4967091;28;20223;-84
2022/03/26 06:06:22;;;;;;;39.37;17.40;;;11.00;95.60;;;;;;4971605;28;20206;-83
2022/03/26 06:08:48;;;;;;;32.53;18.43;;;12.10;93.70;;;;;;4989283;28;20264;-81
2022/03/26 06:11:13;;;;;;;37.03;19.40;;;12.60;87.30;;;;;;4985955;28;20466;-82
2022/03/26 06:13:39;;;;;;;32.00;16.90;;;12.90;85.90;;;;;;4984352;28;20271;-83
2022/03/26 06:16:05;;;;;;;32.13;16.07;;;11.90;83.30;;;;;;4964382;28;20199;-83
2022/03/26 06:18:31;;;;;;;30.33;17.57;;;12.40;85.30;;;;;;4965035;28;20191;-83
2022/03/26 06:20:56;;;;;;;32.45;16.48;;;12.10;82.80;;;;;;4963324;28;20223;-83
2022/03/26 06:23:22;;;;;;;30.70;17.43;;;12.20;81.00;;;;;;4962998;28;20239;-84
2022/03/26 06:25:48;;;;;;;38.70;21.07;;;13.30;80.00;;;;;;4963369;28;20184;-84
2022/03/26 06:28:19;;;;;;;33.13;17.70;;;14.50;78.20;;;;;;4965738;28;20275;-85
2022/03/26 06:30:47;;;;;;;35.95;18.83;;;15.50;73.40;;;;;;4969545;28;20172;-87
2022/03/26 06:33:15;;;;;;;34.10;18.60;;;15.40;68.40;;;;;;4967504;28;20211;-84
2022/03/26 06:35:41;;;;;;;33.97;20.73;;;14.70;64.60;;;;;;4979338;28;20191;-85
2022/03/26 06:38:07;;;;;;;33.72;19.15;;;15.30;68.30;;;;;;4981149;28;20196;-84
2022/03/26 06:40:32;;;;;;;42.20;20.00;;;16.60;63.30;;;;;;4966111;28;20394;-87
2022/03/26 06:42:58;;;;;;;36.63;18.97;;;18.20;59.80;;;;;;4967217;28;20619;-85
2022/03/26 06:45:24;;;;;;;37.50;19.50;;;18.40;55.70;;;;;;4965684;28;20176;-83
2022/03/26 06:47:50;;;;;;;38.70;19.70;;;18.60;53.90;;;;;;4964608;28;21453;-82
2022/03/26 06:50:15;;;;;;;36.37;20.87;;;20.20;53.20;;;;;;4964417;28;20438;-84
2022/03/26 06:52:41;;;;;;;35.50;19.93;;;20.00;50.70;;;;;;4967749;28;20211;-86
2022/03/26 06:55:07;;;;;;;42.17;20.63;;;20.20;50.40;;;;;;4963572;28;20192;-83
2022/03/26 06:57:33;;;;;;;34.37;20.77;;;20.10;48.40;;;;;;4943969;28;20192;-84
2022/03/26 06:59:59;;;;;;;40.53;22.87;;;20.40;49.20;;;;;;4975717;28;20438;-83
2022/03/26 07:02:24;;;;;;;36.40;19.93;;;20.90;48.10;;;;;;4992179;28;20270;-82
2022/03/26 07:04:50;;;;;;;37.30;21.33;;;22.10;47.90;;;;;;4991821;28;20194;-81
2022/03/26 07:07:15;;;;;;;32.57;20.70;;;22.50;45.70;;;;;;4972533;28;20192;-86
2022/03/26 07:09:41;;;;;;;32.50;21.87;;;23.00;45.40;;;;;;4967214;28;20195;-86
2022/03/26 07:12:07;;;;;;;36.70;21.30;;;23.60;43.70;;;;;;4970856;28;20180;-85
2022/03/26 07:14:33;;;;;;;41.07;20.90;;;22.40;42.30;;;;;;4948048;28;22115;-85
2022/03/26 07:16:59;;;;;;;43.47;22.73;;;21.20;42.90;;;;;;4959837;28;20451;-83
2022/03/26 07:19:24;;;;;;;38.03;20.37;;;22.20;41.90;;;;;;4965827;28;20187;-84
2022/03/26 07:21:50;;;;;;;34.80;19.70;;;23.00;40.90;;;;;;4982414;28;20755;-87
2022/03/26 07:24:15;;;;;;;33.90;20.30;;;23.80;41.90;;;;;;4965775;28;20219;-86
2022/03/26 07:26:41;;;;;;;32.13;21.30;;;23.60;41.40;;;;;;4965385;28;20214;-83
2022/03/26 07:29:06;;;;;;;36.50;21.20;;;23.80;39.40;;;;;;4964050;28;20250;-85
2022/03/26 07:31:32;;;;;;;35.87;20.43;;;24.80;39.10;;;;;;4986505;28;20235;-81
2022/03/26 07:33:58;;;;;;;33.80;21.83;;;25.80;38.40;;;;;;4984668;28;20242;-81
2022/03/26 07:36:23;;;;;;;33.50;20.57;;;26.30;37.30;;;;;;4964353;28;20191;-86
2022/03/26 07:38:49;;;;;;;36.23;20.93;;;26.50;35.80;;;;;;4963128;28;21320;-84
2022/03/26 07:41:15;;;;;;;37.23;22.13;;;26.30;36.40;;;;;;4965006;28;20184;-84
2022/03/26 07:43:40;;;;;;;34.50;21.63;;;27.70;37.20;;;;;;4955175;28;20231;-81
2022/03/26 07:46:06;;;;;;;36.33;21.53;;;27.40;35.00;;;;;;4952571;28;20442;-86
2022/03/26 07:48:32;;;;;;;39.80;22.07;;;28.20;34.30;;;;;;4955562;28;20275;-86
2022/03/26 07:50:58;;;;;;;33.73;23.23;;;26.80;34.10;;;;;;4965568;28;20545;-85
2022/03/26 07:53:25;;;;;;;34.53;23.17;;;26.90;34.80;;;;;;4965168;28;20650;-83
2022/03/26 07:55:51;;;;;;;40.93;23.17;;;27.40;34.40;;;;;;4958283;28;20183;-85
2022/03/26 07:58:16;;;;;;;38.17;24.03;;;28.00;34.10;;;;;;4961795;28;20454;-83
2022/03/26 08:00:42;;;;;;;37.60;23.40;;;28.60;33.10;;;;;;4961648;28;20588;-84
2022/03/26 08:03:08;;;;;;;38.13;23.70;;;28.90;32.40;;;;;;4964222;28;20217;-85
2022/03/26 08:05:34;;;;;;;36.63;22.67;;;28.40;31.00;;;;;;4961368;28;20184;-85
2022/03/26 08:07:59;;;;;;;37.90;24.43;;;26.70;32.40;;;;;;4964591;28;20450;-84
2022/03/26 08:10:25;;;;;;;32.67;21.97;;;26.50;33.70;;;;;;4962401;28;20728;-84
2022/03/26 08:12:50;;;;;;;36.57;23.47;;;26.70;33.20;;;;;;4960047;28;20211;-84
2022/03/26 08:15:16;;;;;;;39.03;24.07;;;27.30;33.00;;;;;;4960345;28;20200;-84
2022/03/26 08:17:41;;;;;;;34.30;23.60;;;28.00;31.80;;;;;;4964825;28;20191;-85
2022/03/26 08:20:07;;;;;;;34.07;22.50;;;27.20;32.30;;;;;;4961540;28;20182;-84
2022/03/26 08:22:34;;;;;;;38.33;23.60;;;25.60;34.10;;;;;;4965467;28;20286;-84
2022/03/26 08:25:00;;;;;;;37.40;22.70;;;23.90;35.10;;;;;;4962921;28;20446;-83
2022/03/26 08:27:26;;;;;;;38.80;23.83;;;24.60;35.90;;;;;;4964295;28;20435;-83
2022/03/26 08:29:52;;;;;;;37.77;23.47;;;25.70;35.30;;;;;;4960161;28;20445;-85
2022/03/26 08:32:18;;;;;;;39.73;23.87;;;27.70;34.00;;;;;;4965061;28;20176;-87
2022/03/26 08:34:44;;;;;;;36.90;25.10;;;28.90;32.30;;;;;;4965891;28;20543;-86
2022/03/26 08:37:11;;;;;;;33.90;23.30;;;27.10;33.00;;;;;;4966740;28;20194;-82
2022/03/26 08:39:37;;;;;;;36.00;24.10;;;28.20;33.40;;;;;;4983317;28;20483;-85
2022/03/26 08:42:03;;;;;;;42.77;22.90;;;27.40;33.20;;;;;;4966868;28;20968;-86
2022/03/26 08:44:29;;;;;;;37.77;23.97;;;27.80;32.90;;;;;;4952036;28;20519;-85
2022/03/26 08:46:55;;;;;;;34.47;23.37;;;28.80;32.20;;;;;;4955491;28;20461;-82
2022/03/26 08:49:20;;;;;;;34.93;24.40;;;28.30;31.40;;;;;;4976343;28;20292;-83
2022/03/26 08:51:46;;;;;;;38.93;24.20;;;26.20;33.40;;;;;;4966638;28;20431;-82
2022/03/26 08:54:12;;;;;;;43.67;24.60;;;25.50;34.90;;;;;;4965515;28;20342;-87
2022/03/26 08:56:37;;;;;;;38.70;24.90;;;26.70;33.20;;;;;;4965025;28;20228;-80
2022/03/26 08:59:03;;;;;;;39.00;24.20;;;25.30;33.70;;;;;;4989402;28;20172;-83
2022/03/26 09:01:29;;;;;;;36.77;24.10;;;25.00;34.80;;;;;;4970281;28;20199;-82
2022/03/26 09:03:54;;;;;;;41.93;22.70;;;25.50;35.60;;;;;;4960773;28;20223;-83
2022/03/26 09:06:20;;;;;;;36.00;23.27;;;24.70;34.10;;;;;;4961573;28;20219;-84
2022/03/26 09:08:46;;;;;;;46.17;26.30;;;24.00;35.20;;;;;;4956328;28;20198;-87
2022/03/26 09:11:12;;;;;;;37.17;24.40;;;24.90;36.60;;;;;;4963038;28;20188;-86
2022/03/26 09:13:38;;;;;;;42.33;24.20;;;;;;;;;;4958514;28;20463;-87
2022/03/26 09:16:04;;;;;;;38.63;23.90;;;25.60;35.60;;;;;;4960227;28;20462;-84
2022/03/26 09:18:30;;;;;;;39.13;25.10;;;26.60;34.20;;;;;;4967502;28;20545;-86
2022/03/26 09:20:56;;;;;;;42.53;24.67;;;26.50;33.40;;;;;;4966001;28;20475;-85
2022/03/26 09:23:22;;;;;;;38.07;25.00;;;26.80;33.00;;;;;;4960124;28;20215;-83
2022/03/26 09:25:47;;;;;;;43.93;24.27;;;27.10;33.50;;;;;;4962906;28;21010;-83
2022/03/26 09:28:13;;;;;;;39.83;24.27;;;27.10;31.10;;;;;;4962794;28;20195;-81
2022/03/26 09:30:38;;;;;;;53.37;25.10;;;27.80;33.80;;;;;;4963106;28;20185;-85
2022/03/26 09:33:04;;;;;;;47.83;24.30;;;26.60;32.90;;;;;;4965837;28;20240;-86
2022/03/26 09:35:30;;;;;;;36.90;24.10;;;26.70;32.70;;;;;;4962550;28;20189;-85
2022/03/26 09:37:55;;;;;;;37.97;24.93;;;25.80;33.60;;;;;;4963109;28;20459;-82
2022/03/26 09:40:22;;;;;;;41.10;26.27;;;26.80;32.80;;;;;;4962786;28;20209;-80
2022/03/26 09:42:49;;;;;;;35.00;23.67;;;27.30;32.80;;;;;;4967001;28;20218;-84
2022/03/26 09:45:19;;;;;;;41.17;26.00;;;28.80;33.00;;;;;;4967516;28;20444;-82
2022/03/26 09:47:45;;;;;;;44.47;26.60;;;27.80;32.60;;;;;;4966617;28;20453;-84
2022/03/26 09:50:12;;;;;;;41.07;25.53;;;28.00;31.10;;;;;;4965522;28;20467;-86
2022/03/26 09:52:38;;;;;;;46.63;26.90;;;27.30;31.60;;;;;;4983693;28;20449;-82
2022/03/26 09:55:04;;;;;;;44.83;26.87;;;26.60;31.80;;;;;;4992672;28;20441;-79
2022/03/26 09:57:31;;;;;;;45.70;26.60;;;26.60;32.70;;;;;;4992822;28;20183;-81
2022/03/26 09:59:57;;;;;;;46.13;25.83;;;27.00;32.40;;;;;;4993367;28;20440;-81
2022/03/26 10:02:23;;;;;;;40.47;25.30;;;27.20;32.20;;;;;;4992663;28;20499;-86
2022/03/26 10:04:49;;;;;;;43.87;26.97;;;26.70;32.70;;;;;;4982477;28;20437;-89
2022/03/26 10:07:15;;;;;;;45.40;27.30;;;25.50;32.90;;;;;;4984946;28;20436;-83
2022/03/26 10:09:45;;;;;;;44.40;26.83;;;24.70;33.80;;;;;;4973934;28;20188;-85
2022/03/26 10:12:19;;;;;;;46.07;29.60;;;25.10;33.70;;;;;;4971592;28;20450;-86
2022/03/26 10:14:57;;;;;;;49.77;27.53;;;25.00;34.20;;;;;;4954413;28;20442;-85
2022/03/26 10:17:34;;;;;;;44.50;27.27;;;23.70;35.20;;;;;;4982919;28;20438;-84
2022/03/26 10:20:05;;;;;;;44.23;25.77;;;21.80;36.60;;;;;;4968446;28;20497;-87
2022/03/26 10:22:37;;;;;;;41.43;25.23;;;20.40;38.70;;;;;;4983396;28;20475;-84
2022/03/26 10:25:08;;;;;;;47.57;26.33;;;19.70;40.80;;;;;;4974991;28;20499;-86
2022/03/26 10:27:51;;;;;;;39.93;23.83;;;19.10;42.50;;;;;;4999048;28;20445;-85
2022/03/26 10:32:38;;;;;;;48.77;25.20;;;19.80;44.50;;;;;;4980276;28;20447;-82
2022/03/26 10:33:21;;;;;;;58.37;28.03;;;19.60;43.40;;;;;;4970715;28;20904;-87
2022/03/26 10:35:54;;;;;;;44.47;24.90;;;18.20;43.90;;;;;;4958511;28;20443;-89
2022/03/26 10:38:28;;;;;;;41.90;24.10;;;18.20;43.90;;;;;;4968221;28;20442;-86
2022/03/26 10:41:02;;;;;;;47.47;25.23;;;18.00;43.80;;;;;;4963218;28;20432;-89
2022/03/26 10:43:27;;;;;;;42.07;22.83;;;17.80;44.70;;;;;;4962682;28;20480;-86
2022/03/26 10:45:55;;;;;;;40.00;22.23;;;17.40;45.70;;;;;;4963068;28;20967;-88
2022/03/26 10:48:27;;;;;;;39.47;22.70;;;17.40;45.40;;;;;;4983839;28;20983;-85
2022/03/26 10:50:59;;;;;;;43.60;22.40;;;17.50;45.80;;;;;;4967010;28;20450;-84
2022/03/26 10:53:35;;;;;;;48.73;24.83;;;17.50;45.20;;;;;;4966899;28;20747;-87
2022/03/26 10:56:06;;;;;;;37.87;22.37;;;17.30;45.30;;;;;;4960652;28;21152;-87
2022/03/26 10:58:33;;;;;;;40.07;23.10;;;17.30;43.60;;;;;;4964152;28;20451;-85
2022/03/26 11:01:00;;;;;;;49.00;25.07;;;17.40;43.40;;;;;;4965845;28;20435;-85
2022/03/26 11:03:26;;;;;;;39.30;22.77;;;17.40;44.80;;;;;;4963132;28;20478;-87
2022/03/26 11:05:54;;;;;;;53.00;23.13;;;17.50;44.10;;;;;;4961192;28;20656;-84
2022/03/26 11:08:21;;;;;;;39.90;22.53;;;17.90;45.20;;;;;;4955587;28;20450;-85
2022/03/26 11:10:50;;;;;;;44.57;23.20;;;17.40;44.10;;;;;;4967002;28;20537;-85
2022/03/26 11:13:17;;;;;;;38.90;20.10;;;17.40;44.30;;;;;;4961658;28;20473;-85
2022/03/26 11:15:51;;;;;;;37.50;20.83;;;17.80;42.90;;;;;;4977029;28;21075;-85
2022/03/26 11:18:47;;;;;;;39.23;21.80;;;17.90;41.30;;;;;;4972758;28;20927;-85
2022/03/26 11:21:40;;;;;;;34.30;20.80;;;17.80;41.30;;;;;;4956563;28;20472;-83
2022/03/26 11:24:19;;;;;;;42.93;20.60;;;17.80;40.80;;;;;;4952485;28;20479;-84
2022/03/26 11:27:12;;;;;;;43.33;20.60;;;17.70;40.60;;;;;;4953963;28;20943;-86
2022/03/26 11:30:17;;;;;;;37.57;20.80;;;17.70;41.30;;;;;;4954907;28;20909;-86
2022/03/26 11:32:49;;;;;;;39.70;21.40;;;17.90;40.50;;;;;;4952707;28;20470;-85
2022/03/26 11:35:16;;;;;;;29.57;18.00;;;17.80;40.70;;;;;;4960541;28;20447;-88
2022/03/26 11:38:00;;;;;;;36.30;22.00;;;17.70;41.30;;;;;;4971797;28;20450;-89
2022/03/26 11:40:46;;;;;;;38.33;21.93;;;17.80;41.40;;;;;;4961795;28;20522;-88
2022/03/26 11:43:19;;;;;;;36.60;20.63;;;17.90;41.00;;;;;;4987105;28;20466;-86
2022/03/26 11:51:23;;;;;;;44.43;20.27;;;18.40;38.80;;;;;;4988455;28;20479;-83
2022/03/26 11:53:56;;;;;;;45.60;22.27;;;18.30;38.80;;;;;;4986907;28;20454;-87
2022/03/26 11:56:27;;;;;;;41.37;20.20;;;18.60;39.90;;;;;;4980581;28;20519;-86
2022/03/26 11:59:17;;;;;;;39.07;21.60;;;18.50;40.10;;;;;;4976239;28;20877;-84
2022/03/26 12:01:45;;;;;;;44.17;23.75;;;18.50;46.60;;;;;;4956597;28;20433;-89
2022/03/26 12:04:13;;;;;;;40.90;25.37;;;18.40;38.30;;;;;;4966945;28;20219;-85
2022/03/26 12:06:56;;;;;;;33.50;20.60;;;18.40;38.80;;;;;;4967508;28;20439;-87
2022/03/26 12:09:33;;;;;;;38.30;22.50;;;18.50;37.70;;;;;;4977533;28;20500;-88
2022/03/26 12:12:05;;;;;;;41.20;24.00;;;18.70;40.00;;;;;;4967661;28;22988;-85
2022/03/26 12:14:35;;;;;;;38.13;21.80;;;18.60;41.10;;;;;;4953248;28;20466;-87
2022/03/26 12:17:05;;;;;;;42.60;25.20;;;18.60;40.40;;;;;;4960336;28;20474;-88
2022/03/26 12:19:46;;;;;;;35.00;23.13;;;18.60;40.70;;;;;;4961888;28;20451;-85
2022/03/26 12:24:37;;;;;;;40.33;23.70;;;18.60;41.40;;;;;;5054498;23;20611;-81
2022/03/26 12:27:05;;;;;;;53.03;31.73;;;18.50;42.00;;;;;;4957151;28;21192;-83
2022/03/26 12:29:31;;;;;;;129.73;82.43;;;18.60;40.50;;;;;;4958603;28;20188;-86
2022/03/26 12:31:59;;;;;;;177.83;102.27;;;18.50;40.10;;;;;;4955401;28;20446;-82
2022/03/26 12:34:24;;;;;;;105.07;59.67;;;18.50;41.40;;;;;;4950769;28;20672;-80
2022/03/26 12:36:59;;;;;;;50.33;30.17;;;18.70;41.40;;;;;;4952835;28;20936;-85
2022/03/26 12:39:25;;;;;;;47.33;22.20;;;18.70;41.10;;;;;;4968451;28;20184;-86
2022/03/26 12:41:50;;;;;;;57.47;28.70;;;18.50;39.80;;;;;;4956206;28;20447;-81